Terminal Aerodrome Forecast
Issued by NWS Cleveland, OH

Home | Current Version | Previous Version | Graphics & Text | Print | Product List | Glossary Off
Versions: 1 2 3 4 5 6 7 8 9 10 11 12 13 14 15 16 17 18

888
FTUS41 KCLE 241126
TAFTOL
TAF
KTOL 241126Z 2412/2512 24008KT P6SM SCT035 BKN120 OVC200
      TEMPO 2417/2420 3SM -TSRA BR BKN035CB OVC060
     FM242100 24010KT P6SM SCT060 BKN200
     FM250900 21006KT P6SM VCTS BKN035CB OVC120=

USA.gov is the U.S. government's official web portal to all federal, state and local government web resources and services.